createdAt,value
2023-10-03T00:00:12.777Z,11.53
2023-10-03T00:03:21.544Z,11.51
2023-10-03T00:06:27.178Z,11.55
2023-10-03T00:09:33.888Z,11.53
2023-10-03T00:12:39.205Z,11.50
2023-10-03T00:15:45.994Z,11.48
2023-10-03T00:18:51.393Z,11.44
2023-10-03T00:21:57.182Z,11.33
2023-10-03T00:25:03.116Z,11.27
2023-10-03T00:28:13.614Z,11.24
2023-10-03T00:31:19.201Z,11.19
2023-10-03T00:34:25.277Z,11.19
2023-10-03T00:37:31.109Z,11.24
2023-10-03T00:40:40.048Z,11.23
2023-10-03T00:43:45.656Z,11.19
2023-10-03T00:46:52.541Z,11.15
2023-10-03T00:49:58.168Z,11.07
2023-10-03T00:53:05.448Z,10.83
2023-10-03T00:56:12.570Z,10.80
2023-10-03T00:59:18.530Z,10.63
2023-10-03T01:02:27.016Z,10.46
2023-10-03T01:05:32.936Z,10.34
2023-10-03T01:08:38.951Z,10.29
2023-10-03T01:11:46.872Z,10.35
2023-10-03T01:14:36.364Z,10.40
2023-10-03T01:17:42.571Z,10.42
2023-10-03T01:20:48.042Z,10.09
2023-10-03T01:23:57.041Z,10.47
2023-10-03T01:27:02.896Z,10.48
2023-10-03T01:30:08.451Z,10.41
2023-10-03T01:33:17.209Z,10.30
2023-10-03T01:36:23.280Z,10.23
2023-10-03T01:39:29.185Z,10.27
2023-10-03T01:42:35.141Z,10.28
2023-10-03T01:45:44.013Z,10.37
2023-10-03T01:48:49.560Z,10.39
2023-10-03T01:51:55.345Z,10.45
2023-10-03T01:55:04.310Z,10.50
2023-10-03T01:57:55.027Z,10.52
2023-10-03T02:01:01.135Z,10.58
2023-10-03T02:04:06.481Z,10.59
2023-10-03T02:07:12.164Z,10.59
2023-10-03T02:10:17.798Z,10.48
2023-10-03T02:13:24.480Z,10.42
2023-10-03T02:16:12.167Z,10.42
2023-10-03T02:18:58.289Z,10.46
2023-10-03T02:21:44.129Z,10.51
2023-10-03T02:24:31.822Z,10.46
2023-10-03T02:27:18.570Z,10.55
2023-10-03T02:30:13.397Z,10.56
2023-10-03T02:33:09.687Z,10.58
2023-10-03T02:35:56.002Z,10.53
2023-10-03T02:39:02.302Z,9.92
2023-10-03T02:42:09.975Z,10.27
2023-10-03T02:45:17.688Z,10.15
2023-10-03T02:48:36.559Z,10.00
2023-10-03T02:51:43.054Z,9.95
2023-10-03T02:54:50.277Z,9.95
2023-10-03T02:57:58.051Z,8.86
2023-10-03T03:01:22.226Z,10.07
2023-10-03T03:04:27.845Z,10.15
2023-10-03T03:07:35.302Z,10.16
2023-10-03T03:10:41.025Z,10.16
2023-10-03T03:13:49.566Z,10.09
2023-10-03T03:16:54.792Z,9.99
2023-10-03T03:20:02.431Z,9.98
2023-10-03T03:23:09.522Z,10.02
2023-10-03T03:26:15.513Z,10.07
2023-10-03T03:29:21.209Z,10.01
2023-10-03T03:32:27.202Z,9.95
2023-10-03T03:35:35.775Z,9.98
2023-10-03T03:38:41.420Z,10.02
2023-10-03T03:41:46.733Z,9.93
2023-10-03T03:44:52.721Z,9.89
2023-10-03T03:47:40.846Z,9.78
2023-10-03T03:50:46.920Z,9.62
2023-10-03T03:53:53.652Z,9.75
2023-10-03T03:56:59.390Z,9.74
2023-10-03T04:00:05.933Z,9.73
2023-10-03T04:03:21.355Z,9.75
2023-10-03T04:06:26.791Z,9.73
2023-10-03T04:09:32.544Z,9.64
2023-10-03T04:12:39.165Z,9.67
2023-10-03T04:15:45.241Z,9.64
2023-10-03T04:18:52.082Z,9.50
2023-10-03T04:21:59.509Z,9.53
2023-10-03T04:25:05.075Z,9.47
2023-10-03T04:28:15.412Z,9.45
2023-10-03T04:31:20.941Z,9.49
2023-10-03T04:34:27.041Z,9.58
2023-10-03T04:37:32.784Z,9.68
2023-10-03T04:40:42.881Z,9.78
2023-10-03T04:43:49.442Z,9.86
2023-10-03T04:46:58.481Z,9.95
2023-10-03T04:50:04.091Z,10.06
2023-10-03T04:53:11.137Z,9.53
2023-10-03T04:56:16.977Z,10.20
2023-10-03T04:59:23.044Z,10.27
2023-10-03T05:02:32.019Z,10.34
2023-10-03T05:05:42.671Z,10.39
2023-10-03T05:08:48.357Z,10.38
2023-10-03T05:11:54.296Z,10.35
2023-10-03T05:15:03.569Z,10.31
2023-10-03T05:18:10.437Z,10.25
2023-10-03T05:21:17.739Z,10.20
2023-10-03T05:24:05.117Z,10.19
2023-10-03T05:27:12.106Z,10.19
2023-10-03T05:30:18.438Z,9.65
2023-10-03T05:33:28.827Z,10.15
2023-10-03T05:36:39.030Z,10.21
2023-10-03T05:39:27.839Z,10.20
2023-10-03T05:42:34.187Z,10.21
2023-10-03T05:45:21.158Z,9.88
2023-10-03T05:48:07.733Z,10.20
2023-10-03T05:50:56.880Z,10.35
2023-10-03T05:53:45.815Z,10.43
2023-10-03T05:56:32.090Z,10.49
2023-10-03T05:59:17.546Z,10.56
2023-10-03T06:02:26.907Z,10.59
2023-10-03T06:05:33.162Z,10.56
2023-10-03T06:08:38.809Z,10.61
2023-10-03T06:11:46.314Z,10.64
2023-10-03T06:14:51.783Z,10.71
2023-10-03T06:17:59.092Z,10.78
2023-10-03T06:21:05.259Z,10.82
2023-10-03T06:23:52.281Z,10.85
2023-10-03T06:26:58.323Z,10.90
2023-10-03T06:30:06.988Z,10.92
2023-10-03T06:33:13.264Z,10.95
2023-10-03T06:36:19.186Z,11.00
2023-10-03T06:39:25.120Z,11.07
2023-10-03T06:42:10.618Z,11.13
2023-10-03T06:44:56.341Z,11.14
2023-10-03T06:48:05.400Z,11.24
2023-10-03T06:51:12.153Z,11.36
2023-10-03T06:54:17.719Z,11.42
2023-10-03T06:57:24.125Z,10.26
2023-10-03T07:00:32.041Z,11.58
2023-10-03T07:03:37.725Z,11.66
2023-10-03T07:06:44.280Z,11.73
2023-10-03T07:09:52.862Z,11.71
2023-10-03T07:12:58.632Z,11.88
2023-10-03T07:16:05.250Z,11.95
2023-10-03T07:19:12.031Z,12.07
2023-10-03T07:22:18.327Z,12.14
2023-10-03T07:25:25.619Z,12.24
2023-10-03T07:28:33.304Z,12.30
2023-10-03T07:31:39.066Z,12.06
2023-10-03T07:34:45.096Z,12.54
2023-10-03T07:37:51.037Z,12.55
2023-10-03T07:40:57.126Z,12.71
2023-10-03T07:44:02.939Z,12.82
2023-10-03T07:47:08.538Z,12.87
2023-10-03T07:50:14.014Z,13.09
2023-10-03T07:53:21.384Z,13.22
2023-10-03T07:56:35.930Z,13.34
2023-10-03T07:59:41.311Z,13.45
2023-10-03T08:02:49.880Z,13.55
2023-10-03T08:05:59.378Z,13.65
2023-10-03T08:09:05.354Z,13.73
2023-10-03T08:11:53.404Z,13.77
2023-10-03T08:15:00.582Z,13.86
2023-10-03T08:18:09.149Z,13.96
2023-10-03T08:21:17.812Z,14.04
2023-10-03T08:24:23.999Z,14.13
2023-10-03T08:27:35.641Z,14.23
2023-10-03T08:30:47.601Z,14.33
2023-10-03T08:33:55.957Z,14.46
2023-10-03T08:37:02.116Z,14.50
2023-10-03T08:40:08.845Z,14.75
2023-10-03T08:43:16.099Z,14.89
2023-10-03T08:46:23.088Z,15.06
2023-10-03T08:49:31.348Z,15.22
2023-10-03T08:52:37.078Z,15.40
2023-10-03T08:55:43.134Z,15.60
2023-10-03T08:58:49.230Z,15.73
2023-10-03T09:01:58.596Z,16.02
2023-10-03T09:05:04.494Z,16.19
2023-10-03T09:08:16.660Z,16.12
2023-10-03T09:11:21.818Z,16.43
2023-10-03T09:14:29.738Z,16.61
2023-10-03T09:17:42.480Z,16.76
2023-10-03T09:20:50.563Z,16.86
2023-10-03T09:24:23.047Z,16.97
2023-10-03T09:27:41.162Z,17.10
2023-10-03T09:30:47.617Z,17.18
2023-10-03T09:33:57.669Z,17.30
2023-10-03T09:37:05.895Z,16.73
2023-10-03T09:40:11.889Z,17.59
2023-10-03T09:43:21.013Z,17.71
2023-10-03T09:46:26.995Z,17.79
2023-10-03T09:49:33.221Z,17.91
2023-10-03T09:52:39.292Z,17.98
2023-10-03T09:55:49.242Z,18.17
2023-10-03T09:58:57.156Z,18.32
2023-10-03T10:02:03.429Z,18.45
2023-10-03T10:05:11.253Z,18.13
2023-10-03T10:08:19.931Z,18.72
2023-10-03T10:11:28.908Z,18.83
2023-10-03T10:14:36.393Z,18.93
2023-10-03T10:17:43.600Z,19.03
2023-10-03T10:20:54.849Z,19.14
2023-10-03T10:24:42.254Z,19.26
2023-10-03T10:27:50.523Z,19.23
2023-10-03T10:30:58.619Z,19.45
2023-10-03T10:34:05.384Z,19.54
2023-10-03T10:37:23.807Z,19.61
2023-10-03T10:40:13.681Z,19.66
2023-10-03T10:43:28.135Z,19.72
2023-10-03T10:46:53.227Z,19.77
2023-10-03T10:50:14.040Z,19.82
2023-10-03T10:53:27.860Z,19.91
2023-10-03T10:56:16.406Z,19.90
2023-10-03T10:59:29.445Z,20.05
2023-10-03T11:02:48.691Z,19.78
2023-10-03T11:06:06.056Z,20.11
2023-10-03T11:09:11.870Z,20.14
2023-10-03T11:12:19.230Z,20.20
2023-10-03T11:15:32.277Z,20.27
2023-10-03T11:18:49.650Z,20.33
2023-10-03T11:21:36.705Z,20.37
2023-10-03T11:24:44.775Z,20.38
2023-10-03T11:27:52.211Z,20.37
2023-10-03T11:30:59.320Z,20.44
2023-10-03T11:34:07.339Z,20.46
2023-10-03T11:37:12.615Z,20.49
2023-10-03T11:40:30.541Z,20.52
2023-10-03T11:43:43.068Z,20.54
2023-10-03T11:47:01.087Z,20.55
2023-10-03T11:50:08.059Z,20.56
2023-10-03T11:53:15.731Z,20.54
2023-10-03T11:56:24.569Z,20.59
2023-10-03T11:59:31.025Z,20.62
2023-10-03T12:02:36.528Z,20.65
2023-10-03T12:05:44.093Z,20.70
2023-10-03T12:08:49.996Z,20.76
2023-10-03T12:11:57.451Z,20.81
2023-10-03T12:15:06.449Z,20.86
2023-10-03T12:18:16.396Z,20.88
2023-10-03T12:21:23.387Z,20.84
2023-10-03T12:24:29.147Z,20.93
2023-10-03T12:27:34.839Z,20.96
2023-10-03T12:30:40.678Z,20.90
2023-10-03T12:33:45.908Z,21.01
2023-10-03T12:36:51.766Z,21.07
2023-10-03T12:39:57.471Z,21.10
2023-10-03T12:43:10.638Z,21.11
2023-10-03T12:46:19.617Z,21.16
2023-10-03T12:49:25.976Z,21.20
2023-10-03T12:52:32.114Z,21.23
2023-10-03T12:55:38.284Z,21.21
2023-10-03T12:58:43.684Z,21.21
2023-10-03T13:01:49.277Z,20.45
2023-10-03T13:04:55.014Z,21.28
2023-10-03T13:08:01.112Z,21.29
2023-10-03T13:11:07.421Z,21.28
2023-10-03T13:14:13.464Z,21.33
2023-10-03T13:17:20.172Z,21.33
2023-10-03T13:20:27.571Z,21.39
2023-10-03T13:23:33.368Z,21.40
2023-10-03T13:26:38.876Z,21.40
2023-10-03T13:29:44.518Z,21.39
2023-10-03T13:32:50.306Z,21.38
2023-10-03T13:35:55.678Z,21.41
2023-10-03T13:39:01.471Z,21.42
2023-10-03T13:42:07.525Z,21.42
2023-10-03T13:44:58.256Z,21.44
2023-10-03T13:48:05.110Z,21.44
2023-10-03T13:51:10.807Z,21.46
2023-10-03T13:54:18.221Z,21.48
2023-10-03T13:57:24.421Z,21.47
2023-10-03T14:00:33.841Z,21.47
2023-10-03T14:03:40.806Z,21.46
2023-10-03T14:06:47.270Z,21.36
2023-10-03T14:09:53.113Z,20.94
2023-10-03T14:12:58.682Z,21.48
2023-10-03T14:16:04.242Z,21.46
2023-10-03T14:19:10.493Z,21.44
2023-10-03T14:22:16.098Z,21.39
2023-10-03T14:25:22.530Z,21.36
2023-10-03T14:28:28.105Z,20.72
2023-10-03T14:31:34.012Z,21.30
2023-10-03T14:34:39.807Z,21.27
2023-10-03T14:37:45.275Z,21.24
2023-10-03T14:40:50.808Z,21.21
2023-10-03T14:43:56.464Z,21.20
2023-10-03T14:47:02.005Z,21.17
2023-10-03T14:50:08.121Z,21.16
2023-10-03T14:53:14.224Z,21.09
2023-10-03T14:56:25.545Z,21.12
2023-10-03T14:59:29.040Z,21.07
2023-10-03T15:02:34.947Z,21.04
2023-10-03T15:05:41.398Z,20.25
2023-10-03T15:08:49.970Z,20.95
2023-10-03T15:11:55.624Z,20.89
2023-10-03T15:15:03.915Z,20.86
2023-10-03T15:18:10.166Z,20.82
2023-10-03T15:21:19.184Z,20.74
2023-10-03T15:24:25.440Z,20.57
2023-10-03T15:27:32.575Z,20.32
2023-10-03T15:30:39.125Z,20.48
2023-10-03T15:33:46.402Z,20.40
2023-10-03T15:36:55.139Z,20.34
2023-10-03T15:40:00.778Z,20.24
2023-10-03T15:43:07.919Z,20.19
2023-10-03T15:45:55.103Z,20.11
2023-10-03T15:48:44.462Z,20.06
2023-10-03T15:51:32.046Z,20.00
2023-10-03T15:54:38.728Z,19.94
2023-10-03T15:57:46.211Z,19.87
2023-10-03T16:00:32.254Z,19.80
2023-10-03T16:03:37.780Z,19.75
2023-10-03T16:06:26.842Z,19.69
2023-10-03T16:09:16.356Z,19.63
2023-10-03T16:12:03.057Z,19.58
2023-10-03T16:14:48.515Z,19.53
2023-10-03T16:17:35.181Z,19.41
2023-10-03T16:20:41.378Z,19.45
2023-10-03T16:23:27.895Z,19.41
2023-10-03T16:26:34.436Z,19.36
2023-10-03T16:29:42.016Z,19.32
2023-10-03T16:32:48.190Z,19.28
2023-10-03T16:35:54.417Z,19.24
2023-10-03T16:39:00.330Z,19.18
2023-10-03T16:42:07.106Z,18.93
2023-10-03T16:45:13.775Z,19.11
2023-10-03T16:48:22.803Z,19.07
2023-10-03T16:51:10.037Z,19.04
2023-10-03T16:54:15.972Z,18.97
2023-10-03T16:57:22.138Z,18.90
2023-10-03T17:00:28.518Z,18.85
2023-10-03T17:03:34.989Z,18.80
2023-10-03T17:06:41.415Z,18.75
2023-10-03T17:09:47.546Z,17.84
2023-10-03T17:12:53.993Z,18.55
2023-10-03T17:15:56.252Z,18.61
2023-10-03T17:19:03.380Z,18.56
2023-10-03T17:22:09.838Z,18.50
2023-10-03T17:25:16.177Z,18.50
2023-10-03T17:28:22.809Z,18.50
2023-10-03T17:31:28.685Z,18.42
2023-10-03T17:34:34.471Z,18.39
2023-10-03T17:37:40.412Z,18.26
2023-10-03T17:40:48.818Z,18.12
2023-10-03T17:43:56.454Z,18.07
2023-10-03T17:47:02.261Z,18.02
2023-10-03T17:50:09.034Z,18.00
2023-10-03T17:53:14.312Z,17.97
2023-10-03T17:56:22.010Z,17.95
2023-10-03T17:59:27.342Z,17.95
2023-10-03T18:02:34.068Z,17.91
2023-10-03T18:05:41.988Z,17.89
2023-10-03T18:08:28.506Z,17.89
2023-10-03T18:11:15.365Z,17.86
2023-10-03T18:14:01.726Z,17.72
2023-10-03T18:16:47.484Z,17.78
2023-10-03T18:19:53.460Z,17.71
2023-10-03T18:23:01.058Z,17.65
2023-10-03T18:26:08.349Z,17.50
2023-10-03T18:29:13.748Z,17.46
2023-10-03T18:32:21.767Z,17.32
2023-10-03T18:35:31.321Z,17.11
2023-10-03T18:38:37.048Z,17.12
2023-10-03T18:41:44.095Z,17.03
2023-10-03T18:44:50.225Z,16.96
2023-10-03T18:47:56.552Z,16.87
2023-10-03T18:51:02.488Z,16.67
2023-10-03T18:54:09.480Z,16.62
2023-10-03T18:57:16.321Z,16.54
2023-10-03T19:00:24.023Z,16.48
2023-10-03T19:03:30.580Z,16.47
2023-10-03T19:06:36.299Z,16.45
2023-10-03T19:09:26.549Z,16.44
2023-10-03T19:12:33.205Z,16.43
2023-10-03T19:15:39.168Z,16.35
2023-10-03T19:18:44.738Z,16.28
2023-10-03T19:21:50.412Z,16.20
2023-10-03T19:24:56.564Z,16.19
2023-10-03T19:28:02.539Z,16.14
2023-10-03T19:31:08.466Z,16.11
2023-10-03T19:34:14.248Z,16.07
2023-10-03T19:37:19.884Z,16.00
2023-10-03T19:40:26.063Z,15.95
2023-10-03T19:43:32.239Z,15.88
2023-10-03T19:46:40.184Z,15.81
2023-10-03T19:49:45.955Z,15.74
2023-10-03T19:52:52.795Z,15.67
2023-10-03T19:55:59.417Z,15.62
2023-10-03T19:59:05.249Z,15.28
2023-10-03T20:02:11.132Z,15.50
2023-10-03T20:05:16.913Z,15.49
2023-10-03T20:08:23.691Z,15.44
2023-10-03T20:11:30.450Z,15.38
2023-10-03T20:14:36.180Z,15.33
2023-10-03T20:17:42.194Z,15.29
2023-10-03T20:20:48.061Z,15.27
2023-10-03T20:23:54.795Z,15.26
2023-10-03T20:27:00.418Z,15.21
2023-10-03T20:30:07.627Z,15.22
2023-10-03T20:33:16.516Z,15.22
2023-10-03T20:36:23.587Z,15.21
2023-10-03T20:39:32.084Z,15.20
2023-10-03T20:42:37.739Z,15.20
2023-10-03T20:45:43.869Z,15.17
2023-10-03T20:48:50.545Z,15.18
2023-10-03T20:51:57.196Z,15.15
2023-10-03T20:55:02.706Z,15.13
2023-10-03T20:58:07.974Z,15.03
2023-10-03T21:01:14.373Z,15.09
2023-10-03T21:04:23.034Z,15.05
2023-10-03T21:07:29.508Z,15.01
2023-10-03T21:10:35.694Z,14.97
2023-10-03T21:13:42.318Z,14.83
2023-10-03T21:16:49.276Z,14.84
2023-10-03T21:19:58.596Z,14.39
2023-10-03T21:23:05.280Z,14.76
2023-10-03T21:26:14.168Z,14.70
2023-10-03T21:29:00.672Z,14.68
2023-10-03T21:31:50.351Z,14.68
2023-10-03T21:34:39.697Z,14.68
2023-10-03T21:37:26.612Z,14.70
2023-10-03T21:40:34.457Z,14.70
2023-10-03T21:43:39.972Z,14.65
2023-10-03T21:46:45.933Z,14.57
2023-10-03T21:49:51.865Z,14.55
2023-10-03T21:53:00.379Z,14.55
2023-10-03T21:56:07.042Z,14.52
2023-10-03T21:59:13.641Z,14.53
2023-10-03T22:02:20.356Z,14.56
2023-10-03T22:05:26.523Z,14.60
2023-10-03T22:08:32.205Z,14.36
2023-10-03T22:11:41.171Z,14.69
2023-10-03T22:14:46.901Z,14.70
2023-10-03T22:17:55.667Z,14.76
2023-10-03T22:21:01.463Z,14.75
2023-10-03T22:24:10.312Z,14.81
2023-10-03T22:27:16.676Z,14.81
2023-10-03T22:30:25.573Z,14.85
2023-10-03T22:33:32.460Z,14.87
2023-10-03T22:36:38.188Z,14.76
2023-10-03T22:39:43.967Z,14.77
2023-10-03T22:42:49.706Z,14.89
2023-10-03T22:45:55.682Z,14.90
2023-10-03T22:49:03.903Z,14.93
2023-10-03T22:52:10.988Z,14.97
2023-10-03T22:55:16.537Z,14.94
2023-10-03T22:58:25.430Z,15.03
2023-10-03T23:01:32.946Z,15.05
2023-10-03T23:04:38.545Z,15.05
2023-10-03T23:07:43.980Z,15.05
2023-10-03T23:10:52.643Z,15.05
2023-10-03T23:14:00.171Z,15.03
2023-10-03T23:17:09.065Z,14.96
2023-10-03T23:20:17.714Z,14.97
2023-10-03T23:23:24.224Z,14.92
2023-10-03T23:26:32.924Z,14.96
2023-10-03T23:29:39.162Z,14.99
2023-10-03T23:32:45.190Z,15.01
2023-10-03T23:35:50.667Z,15.05
2023-10-03T23:38:58.418Z,15.09
2023-10-03T23:42:04.017Z,15.10
2023-10-03T23:45:10.782Z,15.13
2023-10-03T23:48:19.704Z,15.16
2023-10-03T23:51:28.834Z,15.19
2023-10-03T23:54:36.522Z,14.91
2023-10-03T23:57:41.997Z,15.23
